Time;durP1;ratioP1;P1;durP2;ratioP2;P2;SDS_P1;SDS_P2;PMS_P1;PMS_P2;Temp;Humidity;BMP_temperature;BMP_pressure;BME280_temperature;BME280_humidity;BME280_pressure;Samples;Min_cycle;Max_cycle;Signal;HPM_P1;HPM_P2
2023/10/02 00:02:05;;;;;;;3.83;1.73;;;;;;;11.97;100.00;100855.41;4989868;28;20041;-67
2023/10/02 00:04:34;;;;;;;7.45;2.83;;;;;;;11.92;100.00;100847.91;4973786;28;20070;-67
2023/10/02 00:07:06;;;;;;;2.87;1.73;;;;;;;11.81;100.00;100837.56;4989261;28;20034;-73
2023/10/02 00:09:36;;;;;;;3.83;1.73;;;;;;;11.89;100.00;100858.91;4990679;28;20034;-67
2023/10/02 00:12:11;;;;;;;5.00;2.13;;;;;;;11.81;100.00;100842.88;4992958;28;20049;-67
2023/10/02 00:14:40;;;;;;;3.87;2.20;;;;;;;11.57;100.00;100808.22;4991606;28;20072;-67
2023/10/02 00:17:08;;;;;;;4.10;2.40;;;;;;;11.92;100.00;100861.25;4989090;28;20121;-68
2023/10/02 00:19:43;;;;;;;4.07;2.37;;;;;;;11.86;100.00;100853.91;4991039;28;20038;-67
2023/10/02 00:22:34;;;;;;;4.93;2.30;;;;;;;11.72;100.00;100843.88;4992114;28;20034;-68
2023/10/02 00:25:06;;;;;;;3.90;2.28;;;;;;;11.87;100.00;100876.09;4985640;28;20145;-67
2023/10/02 00:27:36;;;;;;;4.33;2.10;;;;;;;11.77;100.00;100853.03;4985900;28;20069;-69
2023/10/02 00:30:07;;;;;;;4.37;2.47;;;;;;;11.64;100.00;100855.41;4989990;28;20026;-66
2023/10/02 00:32:34;;;;;;;5.57;3.60;;;;;;;11.46;100.00;100830.72;4992043;28;20042;-66
2023/10/02 00:35:02;;;;;;;3.67;2.17;;;;;;;11.78;100.00;100888.59;4989567;28;20129;-68
2023/10/02 00:37:44;;;;;;;5.43;2.70;;;;;;;11.73;100.00;100869.56;4988847;28;20044;-67
2023/10/02 00:40:15;;;;;;;4.25;2.17;;;;;;;11.58;100.00;100855.22;4988553;28;20036;-67
2023/10/02 00:42:40;;;;;;;4.77;2.23;;;;;;;11.30;100.00;100810.22;4987752;28;20042;-67
2023/10/02 00:45:08;;;;;;;5.27;2.40;;;;;;;11.60;100.00;100878.06;4985511;28;20414;-67
2023/10/02 00:47:50;;;;;;;3.92;2.70;;;;;;;11.51;100.00;100870.22;4985872;28;20047;-67
2023/10/02 00:50:20;;;;;;;5.07;2.87;;;;;;;11.18;100.00;100832.84;4988430;28;20034;-67
2023/10/02 00:53:03;;;;;;;3.33;2.00;;;;;;;11.41;100.00;100859.72;4990047;28;20034;-68
2023/10/02 00:55:33;;;;;;;6.20;2.73;;;;;;;11.16;100.00;100824.19;4991260;28;20049;-66
2023/10/02 00:58:03;;;;;;;4.47;2.43;;;;;;;11.28;100.00;100843.38;4990828;28;20046;-67
2023/10/02 01:00:35;;;;;;;4.20;2.00;;;;;;;11.60;100.00;100891.41;4997036;28;20034;-68
2023/10/02 01:03:14;;;;;;;4.77;2.70;;;;;;;11.54;100.00;100891.22;4999843;28;20461;-66
2023/10/02 01:05:54;;;;;;;7.05;3.03;;;;;;;11.64;100.00;100908.75;4999892;28;20100;-68
2023/10/02 01:08:24;;;;;;;4.03;2.20;;;;;;;11.47;100.00;100881.22;4994581;28;20042;-67
2023/10/02 01:11:03;;;;;;;5.80;2.63;;;;;;;11.49;100.00;100889.88;5001049;28;20041;-66
2023/10/02 01:13:30;;;;;;;5.43;2.37;;;;;;;11.59;100.00;100904.91;4993949;28;20146;-67
2023/10/02 01:16:03;;;;;;;7.27;3.33;;;;;;;11.62;100.00;100912.59;5001003;28;20042;-68
2023/10/02 01:18:30;;;;;;;5.20;2.43;;;;;;;11.24;100.00;100852.69;4996891;28;20039;-68
2023/10/02 01:21:01;;;;;;;4.70;2.70;;;;;;;11.37;100.00;100874.38;4996814;28;20529;-66
2023/10/02 01:23:30;;;;;;;15.53;5.80;;;;;;;11.58;100.00;100920.09;4993500;28;20030;-67
2023/10/02 01:26:00;;;;;;;5.20;3.20;;;;;;;11.63;100.00;100919.59;4994883;28;20434;-66
2023/10/02 01:28:49;;;;;;;4.97;2.50;;;;;;;11.48;100.00;100896.22;4995228;28;20129;-66
2023/10/02 01:31:32;;;;;;;4.23;2.50;;;;;;;11.45;100.00;100893.06;4977480;28;20554;-67
2023/10/02 01:34:02;;;;;;;5.27;2.20;;;;;;;11.56;100.00;100916.72;4992228;28;20041;-66
2023/10/02 01:36:31;;;;;;;5.53;3.00;;;;;;;11.58;100.00;100919.25;4992777;28;20045;-66
2023/10/02 01:38:59;;;;;;;;;;;;;;;11.70;100.00;100944.59;4993708;28;20050;-68
2023/10/02 01:41:28;;;;;;;5.43;2.50;;;;;;;11.61;100.00;100933.09;4992590;28;20324;-68
2023/10/02 01:43:57;;;;;;;4.90;2.90;;;;;;;11.52;100.00;100919.88;4982363;28;20035;-66
2023/10/02 01:46:24;;;;;;;;;;;;;;;11.72;100.00;100954.09;4979167;28;20030;-67
2023/10/02 01:48:51;;;;;;;4.90;2.50;;;;;;;11.58;100.00;100929.91;4981272;28;19928;-68
2023/10/02 01:51:29;;;;;;;6.57;2.50;;;;;;;11.68;100.00;100958.09;4994616;28;20030;-67
2023/10/02 01:53:58;;;;;;;7.73;2.63;;;;;;;11.60;100.00;100947.44;4991305;28;20046;-67
2023/10/02 01:56:27;;;;;;;4.90;2.60;;;;;;;11.65;100.00;100957.59;4994402;28;20044;-66
2023/10/02 01:58:54;;;;;;;5.97;2.80;;;;;;;11.69;100.00;100965.09;4994743;28;20034;-67
2023/10/02 02:01:21;;;;;;;8.63;3.40;;;;;;;11.66;100.00;100959.28;4992063;28;20034;-68
2023/10/02 02:03:50;;;;;;;4.93;2.83;;;;;;;11.71;100.00;100972.94;4992446;28;20076;-67
2023/10/02 02:06:21;;;;;;;4.57;2.92;;;;;;;11.49;100.00;100932.56;4993455;28;20053;-66
2023/10/02 02:08:58;;;;;;;6.20;2.80;;;;;;;11.56;100.00;100947.91;4994896;28;20122;-66
2023/10/02 02:11:29;;;;;;;6.78;2.75;;;;;;;11.73;100.00;100973.59;4992737;28;20038;-67
2023/10/02 02:14:03;;;;;;;6.47;2.60;;;;;;;11.55;100.00;100951.56;4994250;28;20050;-67
2023/10/02 02:16:35;;;;;;;5.77;3.03;;;;;;;11.54;100.00;100957.91;4991291;28;20030;-69
2023/10/02 02:19:07;;;;;;;5.93;3.30;;;;;;;11.50;100.00;100949.38;4995012;28;20081;-67
2023/10/02 02:21:35;;;;;;;6.40;2.37;;;;;;;11.75;100.00;100985.78;4989441;28;20038;-67
2023/10/02 02:24:06;;;;;;;5.67;3.27;;;;;;;11.72;100.00;100986.13;4994871;28;20030;-66
2023/10/02 02:26:39;;;;;;;4.50;2.27;;;;;;;11.37;100.00;100933.03;4990337;28;20049;-66
2023/10/02 02:29:23;;;;;;;5.23;2.57;;;;;;;11.66;100.00;100985.94;4991664;28;20046;-67
2023/10/02 02:31:59;;;;;;;5.60;2.70;;;;;;;11.48;100.00;100959.38;4978859;28;20068;-67
2023/10/02 02:34:26;;;;;;;6.83;3.60;;;;;;;11.47;100.00;100966.56;4993961;28;20072;-66
2023/10/02 02:36:54;;;;;;;5.60;2.80;;;;;;;11.55;100.00;100984.41;4992221;28;20091;-68
2023/10/02 02:39:22;;;;;;;6.87;2.50;;;;;;;11.36;100.00;100964.22;4991382;28;20030;-69
2023/10/02 02:42:09;;;;;;;4.97;2.70;;;;;;;11.43;100.00;100981.22;4989484;28;20513;-68
2023/10/02 02:44:46;;;;;;;7.93;3.83;;;;;;;11.32;100.00;100957.53;4985967;28;20069;-67
2023/10/02 02:47:16;;;;;;;6.67;3.17;;;;;;;11.56;100.00;100995.91;4986534;28;20034;-68
2023/10/02 02:49:50;;;;;;;5.20;2.80;;;;;;;11.56;100.00;101001.25;4982524;28;20431;-68
2023/10/02 02:52:26;;;;;;;6.03;3.03;;;;;;;11.58;100.00;100994.78;4992495;28;20034;-68
2023/10/02 02:54:58;;;;;;;4.63;3.03;;;;;;;11.18;100.00;100950.16;4989579;28;20081;-67
2023/10/02 02:57:31;;;;;;;4.50;2.50;;;;;;;11.42;100.00;101006.22;4990817;28;20502;-68
2023/10/02 03:02:46;;;;;;;5.40;3.23;;;;;;;11.42;100.00;100989.38;4989106;28;20355;-68
2023/10/02 03:05:16;;;;;;;;;;;;;;;11.57;100.00;101018.94;4993463;28;20042;-67
2023/10/02 03:07:44;;;;;;;9.60;3.50;;;;;;;11.47;100.00;101022.56;4990282;28;19913;-66
2023/10/02 03:10:11;;;;;;;9.45;4.25;;;;;;;11.35;100.00;101007.88;4986266;28;20038;-68
2023/10/02 03:12:48;;;;;;;7.57;3.87;;;;;;;11.07;100.00;100967.28;4989419;28;20168;-69
2023/10/02 03:15:18;;;;;;;7.67;4.30;;;;;;;11.32;100.00;101016.19;4990034;28;20097;-68
2023/10/02 03:17:49;;;;;;;7.70;3.60;;;;;;;11.47;100.00;101046.56;4968120;28;20037;-67
2023/10/02 03:20:24;;;;;;;9.97;3.53;;;;;;;11.47;100.00;101040.41;4990868;28;20050;-67
2023/10/02 03:22:56;;;;;;;8.27;3.87;;;;;;;11.45;100.00;101039.72;4986626;28;20034;-67
2023/10/02 03:25:28;;;;;;;8.07;3.77;;;;;;;11.28;100.00;101032.69;4987783;28;20474;-68
2023/10/02 03:27:55;;;;;;;7.07;3.97;;;;;;;11.23;100.00;101038.47;4989241;28;20585;-66
2023/10/02 03:30:38;;;;;;;9.00;4.20;;;;;;;11.13;100.00;101022.59;4991813;28;20057;-66
2023/10/02 03:33:17;;;;;;;5.93;4.23;;;;;;;11.16;100.00;101032.13;4981452;28;20374;-66
2023/10/02 03:36:09;;;;;;;10.13;4.83;;;;;;;11.14;100.00;101031.44;5003456;28;20470;-68
2023/10/02 03:38:42;;;;;;;7.53;3.60;;;;;;;11.25;100.00;101054.31;4988390;28;20564;-65
2023/10/02 03:41:10;;;;;;;8.33;3.80;;;;;;;11.16;100.00;101038.28;4987725;28;20046;-67
2023/10/02 03:43:46;;;;;;;9.38;3.55;;;;;;;11.24;100.00;101060.63;4984853;28;20449;-67
2023/10/02 03:46:22;;;;;;;6.87;3.80;;;;;;;11.14;100.00;101050.09;4982735;28;20038;-67
2023/10/02 03:48:58;;;;;;;8.93;3.57;;;;;;;11.14;100.00;101058.94;4991239;28;20572;-68
2023/10/02 03:51:40;;;;;;;7.37;3.33;;;;;;;11.13;100.00;101064.41;4988535;28;20066;-68
2023/10/02 03:54:22;;;;;;;5.50;3.30;;;;;;;11.14;100.00;101069.59;4988304;28;20446;-68
2023/10/02 03:56:49;;;;;;;6.03;3.50;;;;;;;11.03;100.00;101058.38;4991389;28;20315;-68
2023/10/02 03:59:26;;;;;;;8.33;3.80;;;;;;;11.04;100.00;101076.03;4990807;28;20421;-68
2023/10/02 04:01:54;;;;;;;8.67;4.90;;;;;;;10.96;100.00;101083.97;4987536;28;20034;-67
2023/10/02 04:04:21;;;;;;;6.50;3.60;;;;;;;10.90;100.00;101074.78;4987291;28;20073;-67
2023/10/02 04:06:53;;;;;;;6.90;3.60;;;;;;;10.94;100.00;101081.47;4991018;28;20049;-67
2023/10/02 04:11:48;;;;;;;6.13;3.97;;;;;;;10.96;100.00;101083.97;4991654;28;20050;-66
2023/10/02 04:14:17;;;;;;;7.50;3.63;;;;;;;10.96;100.00;101075.97;4991384;28;20030;-66
2023/10/02 04:16:52;;;;;;;;;;;;;;;11.08;100.00;101098.72;4991268;28;20117;-69
2023/10/02 04:19:23;;;;;;;7.93;3.33;;;;;;;10.68;100.00;101036.16;4988643;28;20029;-70
2023/10/02 04:21:53;;;;;;;4.90;3.53;;;;;;;11.01;100.00;101087.03;4981844;28;20072;-70
2023/10/02 04:24:25;;;;;;;8.40;3.47;;;;;;;10.99;100.00;101089.00;4986698;28;20026;-66
2023/10/02 04:26:54;;;;;;;7.77;3.43;;;;;;;11.08;100.00;101086.22;4984069;28;20054;-72
2023/10/02 04:29:37;;;;;;;;;;;;;;;11.18;100.00;101100.25;4987973;28;20038;-71
2023/10/02 04:32:14;;;;;;;5.63;3.27;;;;;;;11.06;100.00;101087.38;4988582;28;20029;-70
2023/10/02 04:34:56;;;;;;;5.40;3.20;;;;;;;11.16;100.00;101101.41;4987786;28;20093;-69
2023/10/02 04:37:31;;;;;;;8.10;3.30;;;;;;;11.14;100.00;101096.25;4987371;28;20067;-66
2023/10/02 04:42:57;;;;;;;8.03;3.50;;;;;;;11.07;100.00;101097.88;4985990;28;20485;-68
2023/10/02 04:45:20;;;;;;;8.60;4.03;;;;;;;11.28;100.00;101126.00;4987762;28;20038;-67
2023/10/02 04:47:48;;;;;;;4.33;2.77;;;;;;;11.28;100.00;101131.34;4987088;28;20026;-69
2023/10/02 04:53:03;;;;;;;5.37;3.37;;;;;;;10.86;99.41;101092.91;4987894;28;20217;-64
2023/10/02 04:55:42;;;;;;;7.50;2.73;;;;;;;11.19;98.48;101119.75;4999461;28;20023;-67
2023/10/02 05:03:37;;;;;;;6.13;3.10;;;;;;;11.21;97.04;101122.28;4986934;28;20036;-67
2023/10/02 05:06:04;;;;;;;3.67;2.17;;;;;;;11.05;96.91;101107.03;4986646;28;20528;-67
2023/10/02 05:08:35;;;;;;;6.50;3.07;;;;;;;11.11;96.96;101104.56;4984099;28;20034;-68
2023/10/02 05:11:06;;;;;;;5.73;2.57;;;;;;;11.22;96.22;101132.78;4984200;28;20531;-69
2023/10/02 05:13:53;;;;;;;5.70;3.03;;;;;;;11.24;96.29;101137.94;4984420;28;20054;-68
2023/10/02 05:16:35;;;;;;;5.87;3.03;;;;;;;11.25;96.81;101148.44;4988135;28;20042;-68
2023/10/02 05:19:04;;;;;;;4.87;2.97;;;;;;;11.22;96.53;101147.94;4984319;28;20112;-67
2023/10/02 05:21:38;;;;;;;;;;;;;;;11.28;96.77;101145.50;4989262;28;20026;-67
2023/10/02 05:24:11;;;;;;;7.20;3.40;;;;;;;11.19;97.10;101141.09;4982140;28;20269;-70
2023/10/02 05:26:44;;;;;;;9.40;3.17;;;;;;;11.06;97.00;101122.03;4985637;28;20042;-66
2023/10/02 05:29:17;;;;;;;3.87;2.30;;;;;;;11.29;96.27;101149.00;4988397;28;20042;-68
2023/10/02 05:31:47;;;;;;;5.83;3.13;;;;;;;11.06;96.90;101111.38;4981673;28;20030;-68
2023/10/02 05:34:23;;;;;;;5.47;2.70;;;;;;;11.35;96.62;101149.19;4984565;28;20038;-69
2023/10/02 05:39:34;;;;;;;5.40;3.03;;;;;;;11.30;97.22;101143.50;4988198;28;20104;-66
2023/10/02 05:42:06;;;;;;;7.93;3.60;;;;;;;11.39;97.65;101152.38;4992357;28;20378;-67
2023/10/02 05:44:34;;;;;;;7.07;2.70;;;;;;;11.39;97.02;101158.56;4989025;28;20022;-70
2023/10/02 05:47:06;;;;;;;4.22;2.50;;;;;;;11.45;97.29;101160.56;4990192;28;20034;-66
2023/10/02 05:49:32;;;;;;;9.00;4.33;;;;;;;11.56;97.31;101175.47;4981481;28;20031;-68
2023/10/02 05:52:00;;;;;;;6.77;2.83;;;;;;;11.54;95.97;101169.44;4991384;28;20030;-65
2023/10/02 05:54:29;;;;;;;6.10;3.08;;;;;;;11.59;96.79;101177.00;4993481;28;20117;-65
2023/10/02 05:57:12;;;;;;;6.70;3.00;;;;;;;11.55;95.38;101165.78;4986586;28;20117;-65
2023/10/02 05:59:55;;;;;;;4.57;2.80;;;;;;;11.70;94.61;101187.38;4993477;28;20093;-64
2023/10/02 06:02:22;;;;;;;4.97;3.07;;;;;;;11.71;94.54;101173.03;4993095;28;20038;-65
2023/10/02 06:05:07;;;;;;;5.53;3.23;;;;;;;11.69;93.70;101167.03;4989911;28;20065;-67
2023/10/02 06:07:51;;;;;;;5.50;2.60;;;;;;;11.89;91.73;101194.34;4991754;28;20076;-71
2023/10/02 06:10:26;;;;;;;4.90;2.60;;;;;;;11.82;89.61;101202.13;4994250;28;20038;-67
2023/10/02 06:13:05;;;;;;;6.03;2.87;;;;;;;11.86;88.81;101189.34;4977360;28;20034;-67
2023/10/02 06:15:48;;;;;;;5.17;2.70;;;;;;;11.67;88.47;101153.84;4992433;28;20034;-68
2023/10/02 06:18:29;;;;;;;7.07;3.17;;;;;;;12.01;89.16;101207.22;4993799;28;20035;-66
2023/10/02 06:21:00;;;;;;;5.90;3.07;;;;;;;11.85;88.09;101176.97;4988376;28;20030;-68
2023/10/02 06:23:29;;;;;;;7.37;3.17;;;;;;;11.99;88.05;101201.22;4994459;28;20406;-68
2023/10/02 06:25:59;;;;;;;10.80;3.33;;;;;;;11.91;88.29;101214.53;4994857;28;20058;-68
2023/10/02 06:28:27;;;;;;;5.40;2.93;;;;;;;11.89;88.76;101221.88;4978606;28;20161;-65
2023/10/02 06:30:57;;;;;;;6.30;2.97;;;;;;;11.84;89.04;101200.16;4994349;28;20030;-66
2023/10/02 06:33:23;;;;;;;5.07;2.93;;;;;;;11.58;88.56;101157.50;4993662;28;20042;-69
2023/10/02 06:35:57;;;;;;;7.73;3.10;;;;;;;11.97;88.79;101219.22;4989341;28;20491;-67
2023/10/02 06:38:29;;;;;;;5.20;2.83;;;;;;;11.89;88.22;101213.88;4988523;28;20057;-67
2023/10/02 06:40:56;;;;;;;5.60;3.40;;;;;;;11.88;88.92;101230.03;4988237;28;20038;-66
2023/10/02 06:43:29;;;;;;;4.50;2.50;;;;;;;11.83;88.11;101221.66;4994268;28;20030;-69
2023/10/02 06:46:19;;;;;;;5.27;2.90;;;;;;;11.85;88.50;101220.50;4988546;28;20050;-69
2023/10/02 06:48:46;;;;;;;4.60;2.50;;;;;;;11.69;88.89;101201.72;4992115;28;20030;-69
2023/10/02 06:51:13;;;;;;;3.47;2.33;;;;;;;11.73;88.76;101216.41;4988063;28;20038;-66
2023/10/02 06:53:40;;;;;;;5.50;3.23;;;;;;;11.89;89.12;101239.72;4991678;28;20425;-69
2023/10/02 06:56:10;;;;;;;3.50;2.47;;;;;;;12.04;88.43;101233.59;4984728;28;20148;-68
2023/10/02 06:58:50;;;;;;;3.90;2.60;;;;;;;12.05;87.93;101213.09;4983198;28;20504;-71
2023/10/02 07:01:18;;;;;;;5.30;3.07;;;;;;;12.29;87.91;101244.38;4993482;28;20426;-68
2023/10/02 07:03:51;;;;;;;4.85;2.65;;;;;;;12.22;88.15;101235.34;4993486;28;20456;-67
2023/10/02 07:06:24;;;;;;;5.97;3.57;;;;;;;12.22;88.73;101246.88;4991957;28;20046;-67
2023/10/02 07:09:10;;;;;;;4.57;2.70;;;;;;;12.19;88.53;101222.31;4994577;28;20044;-67
2023/10/02 07:11:39;;;;;;;5.83;2.80;;;;;;;12.36;88.00;101253.41;4994473;28;20409;-71
2023/10/02 07:14:06;;;;;;;4.18;2.75;;;;;;;12.33;87.51;101237.72;4990566;28;20053;-66
2023/10/02 07:16:33;;;;;;;5.10;2.87;;;;;;;12.38;86.97;101248.75;4996140;28;20069;-66
2023/10/02 07:18:59;;;;;;;5.83;3.17;;;;;;;12.24;87.67;101214.66;4990008;28;20034;-65
2023/10/02 07:21:30;;;;;;;5.33;3.20;;;;;;;12.48;87.40;101244.13;4986521;28;20051;-67
2023/10/02 07:23:57;;;;;;;4.93;2.90;;;;;;;12.38;87.11;101243.41;4985496;28;20030;-65
2023/10/02 07:27:05;;;;;;;5.50;3.07;;;;;;;12.52;87.36;101261.47;4987720;28;20621;-66
2023/10/02 07:29:11;;;;;;;5.40;2.60;;;;;;;12.30;86.97;101240.72;4978544;28;20050;-67
2023/10/02 07:31:37;;;;;;;4.70;3.20;;;;;;;12.38;87.06;101254.09;4989043;28;20492;-65
2023/10/02 07:34:02;;;;;;;4.60;2.93;;;;;;;12.40;87.63;101246.75;4988664;28;20042;-66
2023/10/02 07:36:32;;;;;;;8.10;3.93;;;;;;;12.43;87.69;101243.75;4990318;28;20086;-66
2023/10/02 07:39:00;;;;;;;5.77;2.67;;;;;;;12.52;87.14;101261.47;4987672;28;20054;-65
2023/10/02 07:41:28;;;;;;;5.67;3.20;;;;;;;12.26;86.68;101205.50;4982740;28;20422;-69
2023/10/02 07:44:06;;;;;;;6.00;3.17;;;;;;;12.59;86.61;101243.78;4989477;28;20037;-66
2023/10/02 07:46:33;;;;;;;6.30;2.73;;;;;;;12.73;85.69;101262.88;4991839;28;20130;-67
2023/10/02 07:49:00;;;;;;;6.23;3.10;;;;;;;12.75;85.70;101263.53;4987159;28;20043;-67
2023/10/02 07:51:30;;;;;;;7.30;3.58;;;;;;;12.79;85.81;101262.22;4998185;28;20627;-67
2023/10/02 07:53:58;;;;;;;5.57;3.40;;;;;;;12.89;85.10;101266.41;4988750;28;20030;-68
2023/10/02 07:56:25;;;;;;;5.57;3.15;;;;;;;13.01;85.31;101274.94;4989880;28;20046;-67
2023/10/02 07:59:00;;;;;;;3.63;3.10;;;;;;;12.93;83.53;101258.88;4988525;28;20106;-67
2023/10/02 08:01:27;;;;;;;4.03;3.00;;;;;;;12.91;83.68;101272.41;4992089;28;20030;-67
2023/10/02 08:03:56;;;;;;;4.70;3.20;;;;;;;13.00;84.20;101275.91;4989614;28;20026;-66
2023/10/02 08:06:33;;;;;;;5.37;3.13;;;;;;;13.21;82.86;101275.47;4987601;28;20474;-68
2023/10/02 08:11:54;;;;;;;4.67;2.97;;;;;;;13.31;82.00;101279.66;4990290;28;20044;-65
2023/10/02 08:19:56;;;;;;;7.33;2.30;;;;;;;13.09;83.91;101279.44;4989277;28;20045;-66
2023/10/02 08:22:35;;;;;;;4.13;2.30;;;;;;;13.16;80.18;101310.72;4991054;28;20096;-67
2023/10/02 08:25:05;;;;;;;3.42;2.40;;;;;;;13.04;80.93;101298.69;4989399;28;20438;-64
2023/10/02 08:27:32;;;;;;;5.07;2.90;;;;;;;12.95;80.81;101278.25;4993174;28;20089;-68
2023/10/02 08:30:01;;;;;;;5.80;2.90;;;;;;;13.03;80.77;101279.13;4986982;28;20042;-67
2023/10/02 08:32:30;;;;;;;5.00;2.77;;;;;;;13.07;80.77;101284.97;4990371;28;20037;-67
2023/10/02 08:34:57;;;;;;;4.40;2.87;;;;;;;13.14;80.86;101283.28;4995916;28;20030;-65
2023/10/02 08:37:23;;;;;;;8.07;2.60;;;;;;;13.30;80.92;101311.94;4991311;28;20053;-67
2023/10/02 08:39:51;;;;;;;5.47;3.33;;;;;;;13.06;80.84;101277.94;4992015;28;20076;-67
2023/10/02 08:42:18;;;;;;;8.25;2.53;;;;;;;13.35;81.20;101324.81;4992097;28;20351;-65
2023/10/02 08:44:43;;;;;;;9.00;2.60;;;;;;;13.16;79.87;101310.72;4993480;28;20390;-67
2023/10/02 08:47:24;;;;;;;5.47;2.63;;;;;;;13.17;79.73;101325.78;4992393;28;20129;-67
2023/10/02 08:50:05;;;;;;;5.80;2.20;;;;;;;13.14;80.46;101320.75;4990289;28;20038;-68
2023/10/02 08:52:39;;;;;;;3.57;2.57;;;;;;;13.12;80.21;101320.06;4992219;28;20037;-67
2023/10/02 08:58:18;;;;;;;7.77;2.97;;;;;;;13.01;80.69;101307.03;4982065;28;20454;-67
2023/10/02 09:03:42;;;;;;;3.85;2.40;;;;;;;13.53;79.36;101309.41;4991575;28;20529;-69
2023/10/02 09:06:32;;;;;;;5.77;2.70;;;;;;;13.47;79.12;101286.81;4990511;28;20035;-68
2023/10/02 09:09:22;;;;;;;4.30;2.47;;;;;;;13.67;76.94;101330.16;4985074;28;20042;-67
2023/10/02 09:11:57;;;;;;;3.97;2.40;;;;;;;13.53;77.20;101328.97;4991135;28;20030;-67
2023/10/02 09:19:48;;;;;;;6.23;2.73;;;;;;;13.87;74.61;101344.81;4988110;28;20516;-69
2023/10/02 09:22:17;;;;;;;4.07;2.70;;;;;;;13.97;75.01;101349.19;4991877;28;20034;-68
2023/10/02 09:25:37;;;;;;;5.70;3.30;;;;;;;13.81;74.76;101321.41;4995767;28;20038;-66
2023/10/02 09:27:31;;;;;;;6.05;3.67;;;;;;;13.97;74.60;101349.19;4980309;28;20042;-69
2023/10/02 09:32:47;;;;;;;10.17;3.10;;;;;;;13.86;74.16;101335.13;4986819;28;20050;-67
2023/10/02 09:35:21;;;;;;;9.27;4.57;;;;;;;13.67;72.85;101300.69;4990013;28;20051;-67
2023/10/02 09:37:55;;;;;;;9.33;4.47;;;;;;;13.97;73.40;101328.59;4991089;28;20037;-68
2023/10/02 09:40:28;;;;;;;6.47;3.63;;;;;;;14.22;71.49;101342.75;5002638;28;20081;-67
2023/10/02 09:43:03;;;;;;;7.90;3.33;;;;;;;14.55;70.90;101365.78;4989346;28;20030;-66
2023/10/02 09:45:35;;;;;;;4.27;2.23;;;;;;;14.75;69.25;101350.09;4995639;28;20110;-67
2023/10/02 09:48:46;;;;;;;4.30;2.77;;;;;;;14.82;69.29;101343.03;4988884;28;20074;-66
2023/10/02 09:50:54;;;;;;;3.70;2.10;;;;;;;15.15;68.15;101367.81;4993014;28;20026;-66
2023/10/02 09:53:24;;;;;;;4.10;2.60;;;;;;;15.24;66.21;101370.41;4992298;28;20359;-67
2023/10/02 09:56:01;;;;;;;5.00;2.03;;;;;;;15.25;64.35;101350.63;4993596;28;20117;-67
2023/10/02 09:58:34;;;;;;;10.47;4.77;;;;;;;15.26;65.32;101357.66;4993049;28;20038;-67
2023/10/02 10:03:52;;;;;;;3.00;1.90;;;;;;;15.21;64.02;101352.00;4989483;28;20454;-66
2023/10/02 10:06:27;;;;;;;4.40;2.47;;;;;;;15.19;62.74;101371.78;4990522;28;20065;-65
2023/10/02 10:11:44;;;;;;;4.10;2.45;;;;;;;15.11;64.54;101384.44;4986762;28;20038;-66
2023/10/02 10:14:37;;;;;;;2.92;2.17;;;;;;;15.11;65.92;101377.22;4990103;28;20034;-67
2023/10/02 10:20:25;;;;;;;3.37;2.50;;;;;;;14.84;65.14;101380.38;4982736;28;20137;-68
2023/10/02 10:22:51;;;;;;;4.77;3.00;;;;;;;14.76;65.37;101370.56;4988038;28;20038;-70
2023/10/02 10:27:59;;;;;;;3.30;2.20;;;;;;;14.85;65.59;101376.69;4990375;28;20078;-67
2023/10/02 10:30:25;;;;;;;3.80;2.83;;;;;;;14.78;66.42;101387.28;4993819;28;20066;-69
2023/10/02 10:35:49;;;;;;;5.20;3.30;;;;;;;14.69;66.67;101371.41;4988051;28;20037;-67
2023/10/02 10:38:37;;;;;;;3.27;2.10;;;;;;;14.72;67.73;101387.97;4991773;28;20034;-67
2023/10/02 10:41:05;;;;;;;4.73;2.23;;;;;;;14.42;68.12;101353.88;4986967;28;20038;-68
2023/10/02 10:43:44;;;;;;;;;;;;;;;14.48;68.58;101380.88;4988281;28;20129;-69
2023/10/02 10:46:20;;;;;;;3.55;2.05;;;;;;;14.25;69.03;101364.66;4992645;28;19968;-69
2023/10/02 10:48:59;;;;;;;4.60;2.50;;;;;;;14.18;68.95;101358.34;4983257;28;20038;-69
2023/10/02 10:51:33;;;;;;;3.63;2.30;;;;;;;14.30;69.17;101390.94;4988508;28;20035;-69
2023/10/02 10:54:12;;;;;;;4.73;2.30;;;;;;;13.44;69.34;101251.56;4991335;28;20478;-68
2023/10/02 10:56:43;;;;;;;4.27;2.80;;;;;;;14.41;68.70;101385.22;4988667;28;20050;-70
2023/10/02 10:59:21;;;;;;;7.20;2.57;;;;;;;14.54;69.23;101396.28;4987991;28;20041;-68
2023/10/02 11:02:09;;;;;;;5.10;2.55;;;;;;;14.51;68.19;101368.97;4992058;28;20096;-68
2023/10/02 11:04:45;;;;;;;;;;;;;;;14.83;69.07;101397.50;4971234;28;20046;-70
2023/10/02 11:07:19;;;;;;;5.63;2.47;;;;;;;14.84;67.79;101381.22;4993315;28;20012;-69
2023/10/02 11:10:19;;;;;;;3.27;2.17;;;;;;;14.76;67.51;101383.13;4988300;28;20046;-65
2023/10/02 11:12:57;;;;;;;5.10;2.40;;;;;;;14.70;67.61;101373.06;4984986;28;20026;-65
2023/10/02 11:18:20;;;;;;;3.73;2.43;;;;;;;14.86;67.72;101383.72;4989977;28;20045;-68
2023/10/02 11:20:56;;;;;;;5.83;2.60;;;;;;;14.98;67.12;101394.88;4992431;28;20113;-68
2023/10/02 11:23:39;;;;;;;4.40;2.40;;;;;;;15.07;67.13;101394.69;4970162;28;20030;-69
2023/10/02 11:26:13;;;;;;;4.60;2.37;;;;;;;14.97;67.06;101404.78;4991280;28;20046;-70
2023/10/02 11:28:41;;;;;;;2.53;2.27;;;;;;;15.00;66.60;101395.53;4989354;28;20057;-71
2023/10/02 11:34:06;;;;;;;5.70;2.00;;;;;;;14.86;66.82;101381.88;4986464;28;20500;-68
2023/10/02 11:36:37;;;;;;;3.87;2.00;;;;;;;14.29;67.05;101300.88;4986974;28;20034;-69
2023/10/02 11:39:09;;;;;;;4.67;2.17;;;;;;;14.65;68.46;101396.88;4986429;28;20042;-70
2023/10/02 11:41:39;;;;;;;3.63;2.47;;;;;;;14.61;68.84;101396.41;4988134;28;20509;-69
2023/10/02 11:44:07;;;;;;;4.47;2.23;;;;;;;14.54;69.39;101380.19;4988402;28;20642;-68
2023/10/02 11:46:33;;;;;;;3.00;2.00;;;;;;;14.71;69.17;101374.75;4989483;28;20133;-70
2023/10/02 11:48:59;;;;;;;3.27;2.27;;;;;;;14.88;68.12;101403.16;4991063;28;20039;-69
2023/10/02 11:51:31;;;;;;;4.57;2.53;;;;;;;14.85;67.84;101387.41;4992980;28;20035;-73
2023/10/02 11:54:05;;;;;;;3.20;2.23;;;;;;;14.63;67.20;101362.22;4990747;28;20038;-69
2023/10/02 11:56:32;;;;;;;3.77;2.17;;;;;;;14.75;68.29;101386.81;4990013;28;20082;-70
2023/10/02 11:58:58;;;;;;;2.93;2.47;;;;;;;14.73;69.32;101391.47;4987598;28;20453;-68
2023/10/02 12:01:27;;;;;;;3.07;2.27;;;;;;;14.69;72.17;101387.47;4986531;28;20141;-70
2023/10/02 12:03:57;;;;;;;6.40;3.03;;;;;;;14.61;75.01;101368.75;4985628;28;20031;-68
2023/10/02 12:06:26;;;;;;;2.40;1.90;;;;;;;14.65;77.46;101387.00;4988217;28;20041;-68
2023/10/02 12:08:56;;;;;;;6.10;2.60;;;;;;;14.70;79.22;101394.53;4988587;28;21474;-69
2023/10/02 12:11:25;;;;;;;3.00;1.97;;;;;;;14.54;81.25;101382.88;4989287;28;20034;-69
2023/10/02 12:13:52;;;;;;;5.23;2.77;;;;;;;14.51;82.61;101395.78;4992851;28;20026;-71
2023/10/02 12:16:21;;;;;;;4.67;2.33;;;;;;;14.40;85.79;101410.34;4989628;28;20077;-70
2023/10/02 12:18:49;;;;;;;4.78;2.30;;;;;;;14.20;85.19;101380.44;4987340;28;20506;-71
2023/10/02 12:21:16;;;;;;;5.05;1.65;;;;;;;14.08;86.94;101373.75;4981687;28;20037;-70
2023/10/02 12:23:43;;;;;;;4.57;1.93;;;;;;;14.00;87.73;101380.97;4983391;28;20036;-70
2023/10/02 12:26:17;;;;;;;3.90;2.20;;;;;;;14.02;87.82;101389.66;4988129;28;20055;-69
2023/10/02 12:28:43;;;;;;;4.13;2.50;;;;;;;13.88;88.87;101392.03;4987880;28;20042;-68
2023/10/02 12:31:14;;;;;;;4.53;2.10;;;;;;;13.69;90.73;101389.69;4993297;28;20474;-69
2023/10/02 12:33:43;;;;;;;3.60;2.20;;;;;;;13.62;93.31;101394.06;4987648;28;20038;-70
2023/10/02 12:36:12;;;;;;;4.30;1.90;;;;;;;13.58;95.80;101403.38;4992193;28;20847;-67
2023/10/02 12:38:40;;;;;;;5.33;2.63;;;;;;;13.28;97.26;101360.22;4989540;28;20437;-70
2023/10/02 12:41:15;;;;;;;3.07;1.80;;;;;;;13.41;97.68;101366.94;4987276;28;20057;-69
2023/10/02 12:43:42;;;;;;;3.27;2.50;;;;;;;13.57;96.45;101380.31;4985680;28;20481;-71
2023/10/02 12:46:09;;;;;;;3.37;2.63;;;;;;;13.75;95.41;101406.91;4987950;28;20030;-69
2023/10/02 12:48:35;;;;;;;6.13;2.00;;;;;;;13.93;95.37;101408.44;4986272;28;20034;-68
2023/10/02 12:51:09;;;;;;;3.27;2.03;;;;;;;14.01;96.16;101406.75;4989009;28;20553;-69